sensor_id;sensor_type;location;lat;lon;timestamp;pressure;altitude;pressure_sealevel;temperature;humidity
46023;BME280;31756;47.936;16.224;2022-12-29T00:02:15;98827.72;;;-0.97;100.00
46023;BME280;31756;47.936;16.224;2022-12-29T00:04:41;98836.72;;;-1.05;100.00
46023;BME280;31756;47.936;16.224;2022-12-29T00:07:07;98827.09;;;-1.18;100.00
46023;BME280;31756;47.936;16.224;2022-12-29T00:09:33;98805.50;;;-1.38;100.00
46023;BME280;31756;47.936;16.224;2022-12-29T00:12:00;98827.53;;;-1.31;100.00
46023;BME280;31756;47.936;16.224;2022-12-29T00:14:27;98816.00;;;-1.51;100.00
46023;BME280;31756;47.936;16.224;2022-12-29T00:17:12;98834.53;;;-1.48;100.00
46023;BME280;31756;47.936;16.224;2022-12-29T00:19:38;98831.03;;;-1.53;100.00
46023;BME280;31756;47.936;16.224;2022-12-29T00:22:23;98811.44;;;-1.63;100.00
46023;BME280;31756;47.936;16.224;2022-12-29T00:25:10;98818.94;;;-1.64;100.00
46023;BME280;31756;47.936;16.224;2022-12-29T00:27:55;98840.09;;;-1.58;100.00
46023;BME280;31756;47.936;16.224;2022-12-29T00:30:40;98844.13;;;-1.63;100.00
46023;BME280;31756;47.936;16.224;2022-12-29T00:33:29;98816.66;;;-1.83;100.00
46023;BME280;31756;47.936;16.224;2022-12-29T00:36:25;98839.00;;;-1.66;100.00
46023;BME280;31756;47.936;16.224;2022-12-29T00:39:03;98843.97;;;-1.67;100.00
46023;BME280;31756;47.936;16.224;2022-12-29T00:41:49;98817.38;;;-1.86;100.00
46023;BME280;31756;47.936;16.224;2022-12-29T00:44:34;98827.41;;;-1.88;100.00
46023;BME280;31756;47.936;16.224;2022-12-29T00:47:00;98847.81;;;-1.78;100.00
46023;BME280;31756;47.936;16.224;2022-12-29T00:49:28;98849.50;;;-1.77;100.00
46023;BME280;31756;47.936;16.224;2022-12-29T00:52:04;98854.03;;;-1.67;100.00
46023;BME280;31756;47.936;16.224;2022-12-29T00:54:32;98858.97;;;-1.70;100.00
46023;BME280;31756;47.936;16.224;2022-12-29T00:56:59;98846.97;;;-1.77;100.00
46023;BME280;31756;47.936;16.224;2022-12-29T00:59:25;98846.41;;;-1.69;100.00
46023;BME280;31756;47.936;16.224;2022-12-29T01:01:51;98851.28;;;-1.73;100.00
46023;BME280;31756;47.936;16.224;2022-12-29T01:04:19;98848.69;;;-1.76;100.00
46023;BME280;31756;47.936;16.224;2022-12-29T01:06:45;98831.72;;;-1.83;100.00
46023;BME280;31756;47.936;16.224;2022-12-29T01:09:11;98850.31;;;-1.78;100.00
46023;BME280;31756;47.936;16.224;2022-12-29T01:11:56;98852.72;;;-1.81;100.00
46023;BME280;31756;47.936;16.224;2022-12-29T01:14:21;98835.34;;;-2.01;100.00
46023;BME280;31756;47.936;16.224;2022-12-29T01:16:48;98864.00;;;-1.94;100.00
46023;BME280;31756;47.936;16.224;2022-12-29T01:19:16;98842.66;;;-2.07;100.00
46023;BME280;31756;47.936;16.224;2022-12-29T01:21:42;98869.56;;;-2.03;100.00
46023;BME280;31756;47.936;16.224;2022-12-29T01:24:08;98854.19;;;-2.12;100.00
46023;BME280;31756;47.936;16.224;2022-12-29T01:26:34;98871.91;;;-2.09;100.00
46023;BME280;31756;47.936;16.224;2022-12-29T01:29:00;98847.94;;;-2.23;100.00
46023;BME280;31756;47.936;16.224;2022-12-29T01:31:26;98866.56;;;-2.16;100.00
46023;BME280;31756;47.936;16.224;2022-12-29T01:33:52;98860.72;;;-2.17;100.00
46023;BME280;31756;47.936;16.224;2022-12-29T01:36:19;98860.91;;;-2.12;100.00
46023;BME280;31756;47.936;16.224;2022-12-29T01:38:44;98859.91;;;-2.16;100.00
46023;BME280;31756;47.936;16.224;2022-12-29T01:41:15;98862.31;;;-2.19;100.00
46023;BME280;31756;47.936;16.224;2022-12-29T01:43:55;98857.94;;;-2.24;100.00
46023;BME280;31756;47.936;16.224;2022-12-29T01:48:52;98851.91;;;-2.29;100.00
46023;BME280;31756;47.936;16.224;2022-12-29T01:51:21;98855.91;;;-2.35;100.00
46023;BME280;31756;47.936;16.224;2022-12-29T01:53:48;98852.03;;;-2.26;100.00
46023;BME280;31756;47.936;16.224;2022-12-29T01:56:17;98828.25;;;-2.36;100.00
46023;BME280;31756;47.936;16.224;2022-12-29T01:58:48;98842.22;;;-2.19;100.00
46023;BME280;31756;47.936;16.224;2022-12-29T02:01:16;98849.44;;;-2.28;100.00
46023;BME280;31756;47.936;16.224;2022-12-29T02:03:45;98845.03;;;-2.35;100.00
46023;BME280;31756;47.936;16.224;2022-12-29T02:06:14;98814.25;;;-2.53;100.00
46023;BME280;31756;47.936;16.224;2022-12-29T02:08:46;98832.94;;;-2.45;100.00
46023;BME280;31756;47.936;16.224;2022-12-29T02:11:12;98801.28;;;-2.65;100.00
46023;BME280;31756;47.936;16.224;2022-12-29T02:13:38;98820.19;;;-2.51;100.00
46023;BME280;31756;47.936;16.224;2022-12-29T02:16:26;98795.38;;;-2.67;100.00
46023;BME280;31756;47.936;16.224;2022-12-29T02:33:13;98826.75;;;-2.55;100.00
46023;BME280;31756;47.936;16.224;2022-12-29T02:36:07;98824.25;;;-2.55;100.00
46023;BME280;31756;47.936;16.224;2022-12-29T02:47:09;98826.38;;;-2.65;100.00
46023;BME280;31756;47.936;16.224;2022-12-29T02:49:42;98805.06;;;-2.77;100.00
46023;BME280;31756;47.936;16.224;2022-12-29T02:52:22;98831.31;;;-2.67;100.00
46023;BME280;31756;47.936;16.224;2022-12-29T02:54:49;98811.78;;;-2.76;100.00
46023;BME280;31756;47.936;16.224;2022-12-29T02:57:29;98825.41;;;-2.69;100.00
46023;BME280;31756;47.936;16.224;2022-12-29T03:00:00;98820.31;;;-2.70;100.00
46023;BME280;31756;47.936;16.224;2022-12-29T03:08:18;98822.81;;;-2.72;100.00
46023;BME280;31756;47.936;16.224;2022-12-29T03:11:04;98815.72;;;-2.82;100.00
46023;BME280;31756;47.936;16.224;2022-12-29T03:16:45;98817.72;;;-2.73;100.00
46023;BME280;31756;47.936;16.224;2022-12-29T03:19:40;98813.88;;;-2.64;100.00
46023;BME280;31756;47.936;16.224;2022-12-29T03:22:13;98812.97;;;-2.66;100.00
46023;BME280;31756;47.936;16.224;2022-12-29T03:25:26;98819.63;;;-2.66;100.00
46023;BME280;31756;47.936;16.224;2022-12-29T03:27:54;98821.25;;;-2.68;100.00
46023;BME280;31756;47.936;16.224;2022-12-29T03:30:22;98821.19;;;-2.70;100.00
46023;BME280;31756;47.936;16.224;2022-12-29T03:32:54;98822.84;;;-2.70;100.00
46023;BME280;31756;47.936;16.224;2022-12-29T03:35:25;98807.25;;;-2.86;100.00
46023;BME280;31756;47.936;16.224;2022-12-29T03:40:38;98805.44;;;-2.90;100.00
46023;BME280;31756;47.936;16.224;2022-12-29T03:43:06;98832.75;;;-2.73;100.00
46023;BME280;31756;47.936;16.224;2022-12-29T03:45:34;98843.16;;;-2.63;100.00
46023;BME280;31756;47.936;16.224;2022-12-29T03:48:00;98843.06;;;-2.66;100.00
46023;BME280;31756;47.936;16.224;2022-12-29T03:50:26;98796.28;;;-2.88;100.00
46023;BME280;31756;47.936;16.224;2022-12-29T03:52:52;98816.69;;;-2.79;100.00
46023;BME280;31756;47.936;16.224;2022-12-29T03:55:17;98837.09;;;-2.69;100.00
46023;BME280;31756;47.936;16.224;2022-12-29T03:57:43;98842.03;;;-2.71;100.00
46023;BME280;31756;47.936;16.224;2022-12-29T04:00:14;98814.81;;;-2.84;100.00
46023;BME280;31756;47.936;16.224;2022-12-29T04:02:47;98829.63;;;-2.68;100.00
46023;BME280;31756;47.936;16.224;2022-12-29T04:05:18;98817.94;;;-2.67;100.00
46023;BME280;31756;47.936;16.224;2022-12-29T04:07:44;98831.84;;;-2.29;100.00
46023;BME280;31756;47.936;16.224;2022-12-29T04:10:10;98833.34;;;-2.33;100.00
46023;BME280;31756;47.936;16.224;2022-12-29T04:12:36;98835.72;;;-2.14;100.00
46023;BME280;31756;47.936;16.224;2022-12-29T04:15:03;98829.84;;;-1.89;100.00
46023;BME280;31756;47.936;16.224;2022-12-29T04:17:29;98816.50;;;-2.13;100.00
46023;BME280;31756;47.936;16.224;2022-12-29T04:19:55;98806.56;;;-2.34;100.00
46023;BME280;31756;47.936;16.224;2022-12-29T04:22:41;98810.78;;;-2.08;100.00
46023;BME280;31756;47.936;16.224;2022-12-29T04:25:07;98839.75;;;-1.94;100.00
46023;BME280;31756;47.936;16.224;2022-12-29T04:27:33;98828.91;;;-2.16;100.00
46023;BME280;31756;47.936;16.224;2022-12-29T04:30:21;98806.03;;;-2.49;100.00
46023;BME280;31756;47.936;16.224;2022-12-29T04:32:58;98827.91;;;-2.45;100.00
46023;BME280;31756;47.936;16.224;2022-12-29T04:35:24;98812.41;;;-2.59;100.00
46023;BME280;31756;47.936;16.224;2022-12-29T04:37:50;98820.50;;;-2.66;100.00
46023;BME280;31756;47.936;16.224;2022-12-29T04:40:16;98818.59;;;-2.71;100.00
46023;BME280;31756;47.936;16.224;2022-12-29T04:42:41;98792.22;;;-2.84;100.00
46023;BME280;31756;47.936;16.224;2022-12-29T04:45:07;98791.44;;;-2.83;100.00
46023;BME280;31756;47.936;16.224;2022-12-29T04:47:49;98812.69;;;-2.73;100.00
46023;BME280;31756;47.936;16.224;2022-12-29T04:50:41;98818.41;;;-2.78;100.00
46023;BME280;31756;47.936;16.224;2022-12-29T04:53:17;98820.97;;;-2.76;100.00
46023;BME280;31756;47.936;16.224;2022-12-29T04:55:43;98814.09;;;-2.82;100.00
46023;BME280;31756;47.936;16.224;2022-12-29T04:58:09;98811.63;;;-2.80;100.00
46023;BME280;31756;47.936;16.224;2022-12-29T05:00:35;98791.34;;;-2.86;100.00
46023;BME280;31756;47.936;16.224;2022-12-29T05:03:01;98799.91;;;-2.80;100.00
46023;BME280;31756;47.936;16.224;2022-12-29T05:05:28;98803.25;;;-2.81;100.00
46023;BME280;31756;47.936;16.224;2022-12-29T05:07:53;98806.44;;;-2.85;100.00
46023;BME280;31756;47.936;16.224;2022-12-29T05:10:19;98785.81;;;-3.00;100.00
46023;BME280;31756;47.936;16.224;2022-12-29T05:12:46;98779.06;;;-3.02;100.00
46023;BME280;31756;47.936;16.224;2022-12-29T05:15:13;98783.22;;;-3.03;100.00
46023;BME280;31756;47.936;16.224;2022-12-29T05:17:38;98816.34;;;-2.88;100.00
46023;BME280;31756;47.936;16.224;2022-12-29T05:20:06;98796.53;;;-3.04;100.00
46023;BME280;31756;47.936;16.224;2022-12-29T05:22:32;98805.53;;;-3.09;100.00
46023;BME280;31756;47.936;16.224;2022-12-29T05:24:58;98815.91;;;-3.00;100.00
46023;BME280;31756;47.936;16.224;2022-12-29T05:27:25;98823.53;;;-2.97;100.00
46023;BME280;31756;47.936;16.224;2022-12-29T05:29:59;98821.00;;;-2.98;100.00
46023;BME280;31756;47.936;16.224;2022-12-29T05:32:24;98821.88;;;-2.96;100.00
46023;BME280;31756;47.936;16.224;2022-12-29T05:34:51;98809.81;;;-3.06;100.00
46023;BME280;31756;47.936;16.224;2022-12-29T05:37:17;98831.63;;;-3.04;100.00
46023;BME280;31756;47.936;16.224;2022-12-29T05:39:43;98827.56;;;-3.02;100.00
46023;BME280;31756;47.936;16.224;2022-12-29T05:42:09;98817.16;;;-3.11;100.00
46023;BME280;31756;47.936;16.224;2022-12-29T05:45:08;98826.69;;;-3.02;100.00
46023;BME280;31756;47.936;16.224;2022-12-29T05:47:53;98834.81;;;-3.08;100.00
46023;BME280;31756;47.936;16.224;2022-12-29T05:50:30;98783.59;;;-3.37;100.00
46023;BME280;31756;47.936;16.224;2022-12-29T05:53:17;98836.38;;;-3.11;100.00
46023;BME280;31756;47.936;16.224;2022-12-29T05:55:45;98829.75;;;-3.09;100.00
46023;BME280;31756;47.936;16.224;2022-12-29T05:58:11;98814.03;;;-3.28;100.00
46023;BME280;31756;47.936;16.224;2022-12-29T06:00:37;98827.72;;;-3.19;100.00
46023;BME280;31756;47.936;16.224;2022-12-29T06:03:03;98837.50;;;-3.26;100.00
46023;BME280;31756;47.936;16.224;2022-12-29T06:05:29;98812.72;;;-3.40;100.00
46023;BME280;31756;47.936;16.224;2022-12-29T06:07:54;98839.88;;;-3.29;100.00
46023;BME280;31756;47.936;16.224;2022-12-29T06:10:21;98844.81;;;-3.30;100.00
46023;BME280;31756;47.936;16.224;2022-12-29T06:12:54;98830.25;;;-3.40;100.00
46023;BME280;31756;47.936;16.224;2022-12-29T06:15:20;98839.72;;;-3.33;100.00
46023;BME280;31756;47.936;16.224;2022-12-29T06:17:48;98809.84;;;-3.49;100.00
46023;BME280;31756;47.936;16.224;2022-12-29T06:20:14;98822.47;;;-3.46;100.00
46023;BME280;31756;47.936;16.224;2022-12-29T06:22:39;98842.91;;;-3.37;100.00
46023;BME280;31756;47.936;16.224;2022-12-29T06:25:06;98841.25;;;-3.37;100.00
46023;BME280;31756;47.936;16.224;2022-12-29T06:27:33;98849.47;;;-3.39;100.00
46023;BME280;31756;47.936;16.224;2022-12-29T06:29:59;98839.34;;;-3.42;100.00
46023;BME280;31756;47.936;16.224;2022-12-29T06:32:25;98843.28;;;-3.49;100.00
46023;BME280;31756;47.936;16.224;2022-12-29T06:34:53;98820.94;;;-3.65;100.00
46023;BME280;31756;47.936;16.224;2022-12-29T06:37:19;98856.09;;;-3.41;100.00
46023;BME280;31756;47.936;16.224;2022-12-29T06:39:45;98855.16;;;-3.43;100.00
46023;BME280;31756;47.936;16.224;2022-12-29T06:42:12;98857.69;;;-3.43;100.00
46023;BME280;31756;47.936;16.224;2022-12-29T06:45:04;98870.09;;;-3.46;100.00
46023;BME280;31756;47.936;16.224;2022-12-29T06:47:30;98841.88;;;-3.63;100.00
46023;BME280;31756;47.936;16.224;2022-12-29T06:49:56;98871.88;;;-3.44;100.00
46023;BME280;31756;47.936;16.224;2022-12-29T06:52:21;98855.63;;;-3.53;100.00
46023;BME280;31756;47.936;16.224;2022-12-29T06:54:49;98866.81;;;-3.45;100.00
46023;BME280;31756;47.936;16.224;2022-12-29T06:57:15;98877.72;;;-3.43;100.00
46023;BME280;31756;47.936;16.224;2022-12-29T06:59:41;98877.72;;;-3.43;100.00
46023;BME280;31756;47.936;16.224;2022-12-29T07:02:06;98886.16;;;-3.41;100.00
46023;BME280;31756;47.936;16.224;2022-12-29T07:04:32;98885.41;;;-3.39;100.00
46023;BME280;31756;47.936;16.224;2022-12-29T07:06:58;98885.38;;;-3.40;100.00
46023;BME280;31756;47.936;16.224;2022-12-29T07:09:25;98877.97;;;-3.37;100.00
46023;BME280;31756;47.936;16.224;2022-12-29T07:11:51;98854.94;;;-3.49;100.00
46023;BME280;31756;47.936;16.224;2022-12-29T07:14:16;98867.09;;;-3.38;100.00
46023;BME280;31756;47.936;16.224;2022-12-29T07:16:42;98854.38;;;-3.42;100.00
46023;BME280;31756;47.936;16.224;2022-12-29T07:19:07;98876.88;;;-3.23;100.00
46023;BME280;31756;47.936;16.224;2022-12-29T07:21:33;98882.06;;;-3.18;100.00
46023;BME280;31756;47.936;16.224;2022-12-29T07:23:59;98880.63;;;-3.12;100.00
46023;BME280;31756;47.936;16.224;2022-12-29T07:26:24;98875.13;;;-3.03;100.00
46023;BME280;31756;47.936;16.224;2022-12-29T07:28:50;98866.50;;;-2.88;100.00
46023;BME280;31756;47.936;16.224;2022-12-29T07:31:18;98857.34;;;-2.87;100.00
46023;BME280;31756;47.936;16.224;2022-12-29T07:33:45;98856.72;;;-2.82;100.00
46023;BME280;31756;47.936;16.224;2022-12-29T07:36:12;98874.22;;;-2.61;100.00
46023;BME280;31756;47.936;16.224;2022-12-29T07:38:38;98858.41;;;-2.58;100.00
46023;BME280;31756;47.936;16.224;2022-12-29T07:41:04;98875.22;;;-2.34;100.00
46023;BME280;31756;47.936;16.224;2022-12-29T07:43:29;98855.59;;;-2.44;100.00
46023;BME280;31756;47.936;16.224;2022-12-29T07:46:19;98864.31;;;-2.34;100.00
46023;BME280;31756;47.936;16.224;2022-12-29T07:48:44;98863.47;;;-2.33;100.00
46023;BME280;31756;47.936;16.224;2022-12-29T07:51:10;98858.06;;;-2.21;100.00
46023;BME280;31756;47.936;16.224;2022-12-29T07:53:36;98883.78;;;-2.03;100.00
46023;BME280;31756;47.936;16.224;2022-12-29T07:56:02;98875.69;;;-1.96;100.00
46023;BME280;31756;47.936;16.224;2022-12-29T07:58:28;98880.03;;;-1.91;100.00
46023;BME280;31756;47.936;16.224;2022-12-29T08:00:58;98881.97;;;-1.83;100.00
46023;BME280;31756;47.936;16.224;2022-12-29T08:03:23;98856.22;;;-2.02;100.00
46023;BME280;31756;47.936;16.224;2022-12-29T08:05:51;98887.03;;;-1.82;100.00
46023;BME280;31756;47.936;16.224;2022-12-29T08:08:16;98862.44;;;-1.91;100.00
46023;BME280;31756;47.936;16.224;2022-12-29T08:10:42;98887.41;;;-1.71;100.00
46023;BME280;31756;47.936;16.224;2022-12-29T08:13:17;98861.91;;;-1.82;100.00
46023;BME280;31756;47.936;16.224;2022-12-29T08:15:42;98868.19;;;-1.69;100.00
46023;BME280;31756;47.936;16.224;2022-12-29T08:18:08;98853.94;;;-1.70;100.00
46023;BME280;31756;47.936;16.224;2022-12-29T08:20:34;98873.66;;;-1.56;100.00
46023;BME280;31756;47.936;16.224;2022-12-29T08:22:59;98857.94;;;-1.50;100.00
46023;BME280;31756;47.936;16.224;2022-12-29T08:25:25;98887.38;;;-1.21;100.00
46023;BME280;31756;47.936;16.224;2022-12-29T08:27:51;98876.03;;;-1.08;100.00
46023;BME280;31756;47.936;16.224;2022-12-29T08:30:16;98876.31;;;-0.99;100.00
46023;BME280;31756;47.936;16.224;2022-12-29T08:32:42;98856.25;;;-0.96;100.00
46023;BME280;31756;47.936;16.224;2022-12-29T08:35:08;98877.81;;;-0.77;100.00
46023;BME280;31756;47.936;16.224;2022-12-29T08:37:34;98875.56;;;-0.67;100.00
46023;BME280;31756;47.936;16.224;2022-12-29T08:39:59;98866.56;;;-0.59;100.00
46023;BME280;31756;47.936;16.224;2022-12-29T08:42:30;98873.47;;;-0.53;100.00
46023;BME280;31756;47.936;16.224;2022-12-29T08:44:59;98880.72;;;-0.64;100.00
46023;BME280;31756;47.936;16.224;2022-12-29T08:47:25;98870.88;;;-0.55;100.00
46023;BME280;31756;47.936;16.224;2022-12-29T08:49:51;98877.94;;;-0.73;100.00
46023;BME280;31756;47.936;16.224;2022-12-29T08:52:17;98858.53;;;-0.75;100.00
46023;BME280;31756;47.936;16.224;2022-12-29T08:54:43;98859.03;;;-0.59;100.00
46023;BME280;31756;47.936;16.224;2022-12-29T08:57:08;98869.94;;;-0.58;100.00
46023;BME280;31756;47.936;16.224;2022-12-29T08:59:40;98869.56;;;-0.72;100.00
46023;BME280;31756;47.936;16.224;2022-12-29T09:02:12;98866.91;;;-0.76;100.00
46023;BME280;31756;47.936;16.224;2022-12-29T09:04:37;98869.59;;;-0.70;100.00
46023;BME280;31756;47.936;16.224;2022-12-29T09:07:03;98854.47;;;-0.42;100.00
46023;BME280;31756;47.936;16.224;2022-12-29T09:09:28;98846.81;;;0.18;100.00
46023;BME280;31756;47.936;16.224;2022-12-29T09:11:57;98877.28;;;0.25;100.00
46023;BME280;31756;47.936;16.224;2022-12-29T09:14:23;98859.41;;;0.18;100.00
46023;BME280;31756;47.936;16.224;2022-12-29T09:16:51;98851.91;;;0.19;100.00
46023;BME280;31756;47.936;16.224;2022-12-29T09:19:35;98866.00;;;0.11;100.00
46023;BME280;31756;47.936;16.224;2022-12-29T09:22:01;98851.28;;;-0.05;100.00
46023;BME280;31756;47.936;16.224;2022-12-29T09:24:27;98828.59;;;-0.05;100.00
46023;BME280;31756;47.936;16.224;2022-12-29T09:26:52;98831.03;;;-0.08;100.00
46023;BME280;31756;47.936;16.224;2022-12-29T09:29:18;98819.09;;;-0.15;100.00
46023;BME280;31756;47.936;16.224;2022-12-29T09:31:44;98839.19;;;0.15;100.00
46023;BME280;31756;47.936;16.224;2022-12-29T09:34:09;98845.69;;;0.39;100.00
46023;BME280;31756;47.936;16.224;2022-12-29T09:36:35;98842.19;;;0.34;100.00
46023;BME280;31756;47.936;16.224;2022-12-29T09:39:00;98841.19;;;0.28;100.00
46023;BME280;31756;47.936;16.224;2022-12-29T09:44:06;98838.81;;;0.68;100.00
46023;BME280;31756;47.936;16.224;2022-12-29T09:46:40;98824.81;;;1.20;100.00
46023;BME280;31756;47.936;16.224;2022-12-29T09:49:21;98824.16;;;0.89;100.00
46023;BME280;31756;47.936;16.224;2022-12-29T09:51:53;98819.47;;;1.06;100.00
46023;BME280;31756;47.936;16.224;2022-12-29T09:57:24;98825.22;;;2.29;100.00
46023;BME280;31756;47.936;16.224;2022-12-29T09:59:55;98824.31;;;2.79;100.00
46023;BME280;31756;47.936;16.224;2022-12-29T10:02:41;98808.13;;;2.15;100.00
46023;BME280;31756;47.936;16.224;2022-12-29T10:05:35;98810.97;;;1.85;100.00
46023;BME280;31756;47.936;16.224;2022-12-29T10:08:15;98803.16;;;1.73;100.00
46023;BME280;31756;47.936;16.224;2022-12-29T10:10:56;98805.38;;;1.56;100.00
46023;BME280;31756;47.936;16.224;2022-12-29T10:16:13;98789.41;;;1.17;100.00
46023;BME280;31756;47.936;16.224;2022-12-29T10:21:56;98791.38;;;0.91;100.00
46023;BME280;31756;47.936;16.224;2022-12-29T10:24:26;98786.28;;;0.89;100.00
46023;BME280;31756;47.936;16.224;2022-12-29T10:26:55;98798.09;;;0.90;100.00
46023;BME280;31756;47.936;16.224;2022-12-29T10:29:25;98783.06;;;0.95;100.00
46023;BME280;31756;47.936;16.224;2022-12-29T10:32:11;98778.44;;;0.76;100.00
46023;BME280;31756;47.936;16.224;2022-12-29T10:34:45;98790.78;;;1.03;100.00
46023;BME280;31756;47.936;16.224;2022-12-29T10:39:54;98786.94;;;1.18;100.00
46023;BME280;31756;47.936;16.224;2022-12-29T10:42:27;98788.84;;;1.30;100.00
46023;BME280;31756;47.936;16.224;2022-12-29T10:44:57;98790.78;;;1.43;100.00
46023;BME280;31756;47.936;16.224;2022-12-29T10:47:27;98773.06;;;1.42;100.00
46023;BME280;31756;47.936;16.224;2022-12-29T10:49:54;98767.06;;;1.36;100.00
46023;BME280;31756;47.936;16.224;2022-12-29T10:52:22;98775.88;;;1.55;100.00
46023;BME280;31756;47.936;16.224;2022-12-29T10:54:54;98755.56;;;1.51;100.00
46023;BME280;31756;47.936;16.224;2022-12-29T10:57:39;98766.56;;;1.54;100.00
46023;BME280;31756;47.936;16.224;2022-12-29T11:00:20;98759.72;;;1.47;100.00
46023;BME280;31756;47.936;16.224;2022-12-29T11:05:39;98766.25;;;1.81;100.00
46023;BME280;31756;47.936;16.224;2022-12-29T11:08:16;98760.06;;;1.65;100.00
46023;BME280;31756;47.936;16.224;2022-12-29T11:10:44;98774.88;;;1.94;100.00
46023;BME280;31756;47.936;16.224;2022-12-29T11:13:16;98775.19;;;2.12;100.00
46023;BME280;31756;47.936;16.224;2022-12-29T11:15:48;98762.63;;;2.18;100.00
46023;BME280;31756;47.936;16.224;2022-12-29T11:18:33;98777.06;;;2.25;100.00
46023;BME280;31756;47.936;16.224;2022-12-29T11:21:02;98784.06;;;2.40;100.00
46023;BME280;31756;47.936;16.224;2022-12-29T11:23:34;98786.81;;;2.53;100.00
46023;BME280;31756;47.936;16.224;2022-12-29T11:26:22;98790.25;;;2.57;100.00
46023;BME280;31756;47.936;16.224;2022-12-29T11:31:53;98783.06;;;2.84;100.00
46023;BME280;31756;47.936;16.224;2022-12-29T11:36:46;98764.75;;;3.03;100.00
46023;BME280;31756;47.936;16.224;2022-12-29T11:39:48;98762.91;;;2.93;100.00
46023;BME280;31756;47.936;16.224;2022-12-29T11:42:18;98760.94;;;2.71;100.00
46023;BME280;31756;47.936;16.224;2022-12-29T11:44:46;98747.53;;;2.78;100.00
46023;BME280;31756;47.936;16.224;2022-12-29T11:47:26;98765.56;;;3.02;100.00
46023;BME280;31756;47.936;16.224;2022-12-29T11:49:58;98761.16;;;2.89;100.00
46023;BME280;31756;47.936;16.224;2022-12-29T11:52:27;98746.94;;;2.37;100.00
46023;BME280;31756;47.936;16.224;2022-12-29T11:54:55;98733.72;;;2.56;100.00
46023;BME280;31756;47.936;16.224;2022-12-29T11:57:22;98744.09;;;2.76;100.00
46023;BME280;31756;47.936;16.224;2022-12-29T11:59:55;98759.31;;;2.78;100.00
46023;BME280;31756;47.936;16.224;2022-12-29T12:02:42;98743.66;;;2.44;100.00
46023;BME280;31756;47.936;16.224;2022-12-29T12:05:19;98754.78;;;2.55;100.00
46023;BME280;31756;47.936;16.224;2022-12-29T12:07:49;98761.41;;;2.47;100.00
46023;BME280;31756;47.936;16.224;2022-12-29T12:10:24;98743.09;;;2.63;100.00
46023;BME280;31756;47.936;16.224;2022-12-29T12:13:18;98749.34;;;2.90;100.00
46023;BME280;31756;47.936;16.224;2022-12-29T12:15:54;98757.06;;;2.97;100.00
46023;BME280;31756;47.936;16.224;2022-12-29T12:18:47;98749.16;;;2.76;100.00
46023;BME280;31756;47.936;16.224;2022-12-29T12:27:14;98750.38;;;2.42;100.00
46023;BME280;31756;47.936;16.224;2022-12-29T12:32:25;98731.13;;;2.50;100.00
46023;BME280;31756;47.936;16.224;2022-12-29T12:34:52;98734.16;;;2.29;100.00
46023;BME280;31756;47.936;16.224;2022-12-29T12:48:17;98738.94;;;2.11;100.00
46023;BME280;31756;47.936;16.224;2022-12-29T12:53:40;98738.88;;;2.08;100.00
46023;BME280;31756;47.936;16.224;2022-12-29T12:56:28;98742.06;;;1.97;100.00
46023;BME280;31756;47.936;16.224;2022-12-29T13:02:03;98733.31;;;1.76;100.00
46023;BME280;31756;47.936;16.224;2022-12-29T13:19:12;98718.09;;;1.75;100.00
46023;BME280;31756;47.936;16.224;2022-12-29T13:36:27;98712.78;;;1.15;100.00
46023;BME280;31756;47.936;16.224;2022-12-29T13:39:50;98732.31;;;1.23;100.00
46023;BME280;31756;47.936;16.224;2022-12-29T13:41:52;98738.03;;;1.15;100.00
46023;BME280;31756;47.936;16.224;2022-12-29T13:44:30;98740.50;;;1.12;100.00
46023;BME280;31756;47.936;16.224;2022-12-29T13:46:59;98735.53;;;1.16;100.00
46023;BME280;31756;47.936;16.224;2022-12-29T13:49:27;98738.81;;;1.12;100.00
46023;BME280;31756;47.936;16.224;2022-12-29T13:51:56;98733.47;;;0.97;100.00
46023;BME280;31756;47.936;16.224;2022-12-29T14:00:18;98737.34;;;1.22;100.00
46023;BME280;31756;47.936;16.224;2022-12-29T14:07:59;98747.16;;;2.00;100.00
46023;BME280;31756;47.936;16.224;2022-12-29T14:10:37;98745.16;;;2.32;100.00
46023;BME280;31756;47.936;16.224;2022-12-29T14:15:43;98726.84;;;1.46;100.00
46023;BME280;31756;47.936;16.224;2022-12-29T14:20:35;98750.28;;;1.38;100.00
46023;BME280;31756;47.936;16.224;2022-12-29T14:23:28;98746.00;;;1.36;100.00
46023;BME280;31756;47.936;16.224;2022-12-29T14:28:46;98760.69;;;1.10;100.00
46023;BME280;31756;47.936;16.224;2022-12-29T14:36:37;98755.75;;;1.16;100.00
46023;BME280;31756;47.936;16.224;2022-12-29T14:39:30;98755.53;;;1.06;100.00
46023;BME280;31756;47.936;16.224;2022-12-29T14:42:06;98760.50;;;1.03;100.00
46023;BME280;31756;47.936;16.224;2022-12-29T14:44:51;98728.78;;;1.14;100.00
46023;BME280;31756;47.936;16.224;2022-12-29T14:49:53;98749.31;;;1.78;100.00
46023;BME280;31756;47.936;16.224;2022-12-29T14:52:23;98749.22;;;2.22;100.00
46023;BME280;31756;47.936;16.224;2022-12-29T14:54:54;98723.66;;;2.05;100.00
46023;BME280;31756;47.936;16.224;2022-12-29T14:57:35;98750.50;;;1.97;100.00
46023;BME280;31756;47.936;16.224;2022-12-29T15:02:37;98753.34;;;1.24;100.00
46023;BME280;31756;47.936;16.224;2022-12-29T15:05:10;98747.25;;;1.13;100.00
46023;BME280;31756;47.936;16.224;2022-12-29T15:07:45;98761.81;;;0.84;100.00
46023;BME280;31756;47.936;16.224;2022-12-29T15:10:15;98765.59;;;0.65;100.00
46023;BME280;31756;47.936;16.224;2022-12-29T15:12:51;98750.34;;;0.59;100.00
46023;BME280;31756;47.936;16.224;2022-12-29T15:15:22;98757.06;;;0.60;100.00
46023;BME280;31756;47.936;16.224;2022-12-29T15:17:48;98766.34;;;0.61;100.00
46023;BME280;31756;47.936;16.224;2022-12-29T15:20:24;98760.31;;;0.55;100.00
46023;BME280;31756;47.936;16.224;2022-12-29T15:23:00;98757.59;;;0.45;100.00
46023;BME280;31756;47.936;16.224;2022-12-29T15:25:27;98743.06;;;0.35;100.00
46023;BME280;31756;47.936;16.224;2022-12-29T15:27:57;98765.09;;;0.44;100.00